Time;durP1;ratioP1;P1;durP2;ratioP2;P2;SDS_P1;SDS_P2;PMS_P1;PMS_P2;Temp;Humidity;BMP_temperature;BMP_pressure;BME280_temperature;BME280_humidity;BME280_pressure;Samples;Min_cycle;Max_cycle;Signal;HPM_P1;HPM_P2
2022/01/29 00:01:47;;;;;;;31.25;8.82;;;;;;;;;;4962117;28;20034;-58
2022/01/29 00:04:16;;;;;;;29.23;8.15;;;;;;;;;;4962766;28;20327;-59
2022/01/29 00:06:42;;;;;;;30.05;9.32;;;;;;;;;;4934506;28;20048;-59
2022/01/29 00:09:14;;;;;;;25.00;8.40;;;;;;;;;;4951831;28;20022;-59
2022/01/29 00:11:44;;;;;;;26.80;9.00;;;;;;;;;;4949895;28;20042;-58
2022/01/29 00:14:09;;;;;;;23.23;8.15;;;;;;;;;;4946005;28;20039;-58
2022/01/29 00:16:37;;;;;;;23.25;8.40;;;;;;;;;;4962117;28;20116;-59
2022/01/29 00:19:06;;;;;;;16.98;7.97;;;;;;;;;;4960900;28;22129;-57
2022/01/29 00:21:31;;;;;;;18.20;7.80;;;;;;;;;;4959807;28;20051;-60
2022/01/29 00:23:59;;;;;;;32.08;8.20;;;;;;;;;;4961887;28;20076;-60
2022/01/29 00:26:27;;;;;;;23.90;9.27;;;;;;;;;;4959551;28;20042;-60
2022/01/29 00:28:55;;;;;;;37.15;9.00;;;;;;;;;;4945581;28;20125;-60
2022/01/29 00:31:23;;;;;;;33.20;9.63;;;;;;;;;;4946265;28;20023;-59
2022/01/29 00:33:49;;;;;;;28.55;8.88;;;;;;;;;;4965211;28;20422;-59
2022/01/29 00:36:19;;;;;;;20.92;7.68;;;;;;;;;;4950173;28;20513;-60
2022/01/29 00:38:45;;;;;;;20.20;7.90;;;;;;;;;;4944154;28;20042;-61
2022/01/29 00:41:12;;;;;;;26.00;10.20;;;;;;;;;;4951612;28;20072;-59
2022/01/29 00:43:41;;;;;;;23.73;9.27;;;;;;;;;;4938224;28;20137;-59
2022/01/29 00:46:09;;;;;;;25.50;10.30;;;;;;;;;;4961161;28;20445;-59
2022/01/29 00:48:39;;;;;;;20.48;9.30;;;;;;;;;;4965732;28;20042;-60
2022/01/29 00:51:05;;;;;;;25.63;9.45;;;;;;;;;;4962832;28;20038;-60
2022/01/29 00:53:32;;;;;;;30.30;10.13;;;;;;;;;;4960501;28;20031;-60
2022/01/29 00:56:05;;;;;;;37.35;11.63;;;;;;;;;;4943759;28;20214;-60
2022/01/29 00:58:33;;;;;;;31.30;9.38;;;;;;;;;;4938522;28;20426;-59
2022/01/29 01:00:59;;;;;;;28.83;9.82;;;;;;;;;;4949813;28;20041;-58
2022/01/29 01:03:27;;;;;;;23.55;9.52;;;;;;;;;;4963526;28;20038;-60
2022/01/29 01:05:52;;;;;;;33.03;11.27;;;;;;;;;;4961613;28;20104;-59
2022/01/29 01:08:17;;;;;;;35.63;11.00;;;;;;;;;;4951753;28;20558;-59
2022/01/29 01:10:45;;;;;;;32.92;10.50;;;;;;;;;;4963352;28;20120;-60
2022/01/29 01:13:14;;;;;;;28.42;10.52;;;;;;;;;;4961285;28;20031;-59
2022/01/29 01:15:42;;;;;;;36.28;11.63;;;;;;;;;;4951980;28;20042;-60
2022/01/29 01:18:11;;;;;;;34.10;11.43;;;;;;;;;;4963248;28;20093;-59
2022/01/29 01:20:37;;;;;;;29.70;10.90;;;;;;;;;;4959139;28;20274;-58
2022/01/29 01:23:08;;;;;;;36.70;11.60;;;;;;;;;;4962686;28;20046;-58
2022/01/29 01:25:33;;;;;;;31.58;10.85;;;;;;;;;;4942655;28;20536;-59
2022/01/29 01:27:59;;;;;;;33.08;11.32;;;;;;;;;;4958638;28;20042;-58
2022/01/29 01:30:27;;;;;;;40.85;10.75;;;;;;;;;;4961275;28;20019;-58
2022/01/29 01:32:53;;;;;;;29.60;11.65;;;;;;;;;;4963491;28;20044;-59
2022/01/29 01:35:36;;;;;;;29.67;10.55;;;;;;;;;;4942199;28;20573;-59
2022/01/29 01:38:24;;;;;;;43.72;11.75;;;;;;;;;;4959868;28;20046;-59
2022/01/29 01:40:57;;;;;;;32.22;12.20;;;;;;;;;;4960136;28;20034;-58
2022/01/29 01:43:22;;;;;;;46.80;11.70;;;;;;;;;;4960955;28;20041;-60
2022/01/29 01:45:48;;;;;;;33.80;11.95;;;;;;;;;;4931677;28;20660;-60
2022/01/29 01:48:18;;;;;;;30.42;11.05;;;;;;;;;;4941854;28;20027;-59
2022/01/29 01:50:46;;;;;;;44.50;12.00;;;;;;;;;;4927646;28;20038;-59
2022/01/29 01:53:14;;;;;;;36.00;11.57;;;;;;;;;;4959251;28;21974;-60
2022/01/29 01:55:40;;;;;;;39.90;11.48;;;;;;;;;;4950957;28;20490;-58
2022/01/29 01:58:08;;;;;;;35.10;11.55;;;;;;;;;;4942835;28;20022;-57
2022/01/29 02:00:38;;;;;;;28.50;10.68;;;;;;;;;;4962705;28;20136;-59
2022/01/29 02:03:08;;;;;;;35.33;11.95;;;;;;;;;;4963084;28;20042;-59
2022/01/29 02:05:33;;;;;;;27.05;12.02;;;;;;;;;;4962512;28;20145;-59
2022/01/29 02:08:01;;;;;;;40.10;11.68;;;;;;;;;;4963139;28;20583;-58
2022/01/29 02:10:30;;;;;;;29.08;10.63;;;;;;;;;;4965296;28;20407;-60
2022/01/29 02:13:03;;;;;;;33.33;11.05;;;;;;;;;;4953448;28;20039;-59
2022/01/29 02:15:29;;;;;;;42.95;11.35;;;;;;;;;;4964631;28;20082;-59
2022/01/29 02:17:57;;;;;;;31.17;11.18;;;;;;;;;;4963982;28;20161;-58
2022/01/29 02:20:26;;;;;;;39.38;11.27;;;;;;;;;;4945286;28;20042;-59
2022/01/29 02:22:54;;;;;;;37.97;10.35;;;;;;;;;;4948216;28;20097;-58
2022/01/29 02:25:28;;;;;;;31.25;9.48;;;;;;;;;;4963312;28;20034;-58
2022/01/29 02:28:00;;;;;;;29.50;9.38;;;;;;;;;;4958599;28;21051;-57
2022/01/29 02:30:30;;;;;;;31.83;9.43;;;;;;;;;;4961849;28;20030;-57
2022/01/29 02:32:57;;;;;;;30.45;8.98;;;;;;;;;;4963660;28;20093;-58
2022/01/29 02:35:25;;;;;;;27.88;10.35;;;;;;;;;;4945744;28;20034;-58
2022/01/29 02:37:55;;;;;;;46.15;9.98;;;;;;;;;;4952068;28;20038;-59
2022/01/29 02:40:24;;;;;;;23.52;9.65;;;;;;;;;;4963632;28;20058;-59
2022/01/29 02:42:56;;;;;;;36.53;10.60;;;;;;;;;;4963423;28;20030;-59
2022/01/29 02:45:26;;;;;;;29.55;10.13;;;;;;;;;;4951761;28;20046;-58
2022/01/29 02:47:56;;;;;;;30.27;9.07;;;;;;;;;;4963079;28;20145;-58
2022/01/29 02:50:22;;;;;;;31.35;9.32;;;;;;;;;;4945927;28;20037;-60
2022/01/29 02:52:47;;;;;;;30.10;9.63;;;;;;;;;;4963539;28;20050;-59
2022/01/29 02:55:13;;;;;;;24.33;9.05;;;;;;;;;;4922355;28;20033;-59
2022/01/29 02:57:41;;;;;;;32.45;9.48;;;;;;;;;;4961763;28;20101;-60
2022/01/29 03:00:11;;;;;;;25.67;8.95;;;;;;;;;;4937216;28;20070;-58
2022/01/29 03:02:37;;;;;;;34.13;10.52;;;;;;;;;;4946161;28;20754;-61
2022/01/29 03:05:05;;;;;;;23.73;9.35;;;;;;;;;;4964306;28;20035;-59
2022/01/29 03:07:33;;;;;;;24.63;9.80;;;;;;;;;;4963335;28;20034;-60
2022/01/29 03:10:03;;;;;;;20.73;9.32;;;;;;;;;;4946590;28;20638;-60
2022/01/29 03:12:28;;;;;;;37.83;11.30;;;;;;;;;;4962074;28;20035;-59
2022/01/29 03:14:56;;;;;;;35.03;10.30;;;;;;;;;;4937889;28;20038;-59
2022/01/29 03:17:24;;;;;;;40.00;11.30;;;;;;;;;;4963697;28;20074;-58
2022/01/29 03:19:53;;;;;;;23.02;9.73;;;;;;;;;;4947738;28;20168;-58
2022/01/29 03:22:19;;;;;;;37.10;10.85;;;;;;;;;;4951862;28;20258;-59
2022/01/29 03:24:47;;;;;;;31.23;9.68;;;;;;;;;;4952476;28;20133;-59
2022/01/29 03:27:12;;;;;;;32.00;10.48;;;;;;;;;;4962998;28;20385;-61
2022/01/29 03:29:40;;;;;;;27.98;10.48;;;;;;;;;;4947156;28;20037;-60
2022/01/29 03:32:06;;;;;;;42.17;12.10;;;;;;;;;;4933333;28;20029;-61
2022/01/29 03:34:34;;;;;;;28.88;10.40;;;;;;;;;;4944813;28;20034;-61
2022/01/29 03:37:00;;;;;;;36.92;9.55;;;;;;;;;;4939545;28;20041;-56
2022/01/29 03:39:27;;;;;;;27.45;10.13;;;;;;;;;;4963955;28;20057;-62
2022/01/29 03:42:02;;;;;;;34.72;11.73;;;;;;;;;;4962943;28;20039;-59
2022/01/29 03:44:27;;;;;;;30.90;9.82;;;;;;;;;;4930106;28;20541;-62
2022/01/29 03:46:57;;;;;;;31.02;10.32;;;;;;;;;;4950230;28;20027;-61
2022/01/29 03:49:28;;;;;;;22.85;9.85;;;;;;;;;;4947020;28;20026;-58
2022/01/29 03:51:53;;;;;;;22.70;9.57;;;;;;;;;;4961648;28;20082;-58
2022/01/29 03:54:24;;;;;;;31.50;10.50;;;;;;;;;;4960622;28;20025;-59
2022/01/29 03:56:52;;;;;;;35.88;10.93;;;;;;;;;;4951305;28;20176;-60
2022/01/29 03:59:19;;;;;;;28.90;10.68;;;;;;;;;;4960721;28;20676;-59
2022/01/29 04:01:50;;;;;;;32.15;10.38;;;;;;;;;;4946188;28;20030;-59
2022/01/29 04:04:17;;;;;;;27.65;11.63;;;;;;;;;;4961745;28;20037;-59
2022/01/29 04:06:43;;;;;;;32.38;10.35;;;;;;;;;;4950385;28;20042;-59
2022/01/29 04:09:11;;;;;;;22.48;9.30;;;;;;;;;;4962311;28;20310;-59
2022/01/29 04:11:39;;;;;;;28.60;10.50;;;;;;;;;;4944576;28;20043;-59
2022/01/29 04:14:18;;;;;;;30.67;10.80;;;;;;;;;;4950720;28;20030;-61
2022/01/29 04:16:46;;;;;;;32.42;9.80;;;;;;;;;;4959197;28;20875;-60
2022/01/29 04:19:13;;;;;;;31.70;10.35;;;;;;;;;;4951316;28;20041;-59
2022/01/29 04:21:41;;;;;;;25.83;10.10;;;;;;;;;;4951313;28;20413;-61
2022/01/29 04:24:09;;;;;;;27.38;10.55;;;;;;;;;;4960559;28;20035;-59
2022/01/29 04:26:37;;;;;;;29.70;11.27;;;;;;;;;;4962442;28;20026;-60
2022/01/29 04:29:07;;;;;;;35.42;11.32;;;;;;;;;;4950284;28;20069;-56
2022/01/29 04:32:25;;;;;;;38.05;12.65;;;;;;;;;;4962431;28;20581;-59
2022/01/29 04:34:28;;;;;;;35.70;11.38;;;;;;;;;;4941975;28;20500;-59
2022/01/29 04:36:55;;;;;;;44.88;10.95;;;;;;;;;;4951761;28;20479;-59
2022/01/29 04:39:21;;;;;;;31.52;9.82;;;;;;;;;;4961120;28;20134;-58
2022/01/29 04:41:47;;;;;;;34.85;10.75;;;;;;;;;;4926961;28;20034;-59
2022/01/29 04:44:12;;;;;;;30.85;10.88;;;;;;;;;;4912647;28;20045;-59
2022/01/29 04:46:42;;;;;;;28.33;10.82;;;;;;;;;;4945241;28;20042;-60
2022/01/29 04:49:13;;;;;;;25.63;11.35;;;;;;;;;;4960534;28;20564;-60
2022/01/29 04:51:42;;;;;;;33.15;10.48;;;;;;;;;;4962326;28;20113;-59
2022/01/29 04:54:10;;;;;;;43.30;11.23;;;;;;;;;;4944590;28;20121;-60
2022/01/29 04:56:40;;;;;;;28.40;10.02;;;;;;;;;;4942885;28;20034;-60
2022/01/29 04:59:07;;;;;;;33.85;10.60;;;;;;;;;;4945314;28;20470;-59
2022/01/29 05:01:42;;;;;;;28.40;11.82;;;;;;;;;;4946670;28;20054;-59
2022/01/29 05:04:08;;;;;;;30.95;11.10;;;;;;;;;;4944224;28;20070;-57
2022/01/29 05:06:36;;;;;;;40.70;11.30;;;;;;;;;;4944792;28;20122;-59
2022/01/29 05:09:03;;;;;;;40.80;10.80;;;;;;;;;;4944035;28;20089;-59
2022/01/29 05:11:29;;;;;;;32.10;10.73;;;;;;;;;;4960320;28;20161;-61
2022/01/29 05:13:54;;;;;;;30.65;10.32;;;;;;;;;;4948565;28;20030;-60
2022/01/29 05:27:39;;;;;;;29.40;11.20;;;;;;;;;;4961790;28;20407;-59
2022/01/29 05:30:10;;;;;;;27.25;10.52;;;;;;;;;;4943774;28;20027;-59
2022/01/29 05:32:38;;;;;;;22.90;10.32;;;;;;;;;;4962477;28;20591;-59
2022/01/29 05:35:04;;;;;;;29.65;10.40;;;;;;;;;;4966082;28;20041;-59
2022/01/29 05:37:30;;;;;;;26.40;9.77;;;;;;;;;;4956564;28;20061;-60
2022/01/29 05:39:58;;;;;;;33.65;11.18;;;;;;;;;;4948045;28;20027;-58
2022/01/29 05:42:23;;;;;;;27.40;10.18;;;;;;;;;;4949672;28;20042;-59
2022/01/29 05:44:51;;;;;;;25.45;10.20;;;;;;;;;;4919802;28;20034;-58
2022/01/29 05:47:19;;;;;;;32.30;10.57;;;;;;;;;;4963545;28;20462;-59
2022/01/29 05:49:45;;;;;;;23.52;11.15;;;;;;;;;;4949035;28;20801;-59
2022/01/29 05:52:12;;;;;;;25.15;10.75;;;;;;;;;;4965798;28;20029;-59
2022/01/29 05:54:38;;;;;;;29.63;10.90;;;;;;;;;;4964921;28;20038;-59
2022/01/29 05:57:06;;;;;;;31.85;10.45;;;;;;;;;;4944995;28;20031;-60
2022/01/29 05:59:36;;;;;;;26.88;11.23;;;;;;;;;;4964408;28;20026;-61
2022/01/29 06:02:02;;;;;;;21.55;10.68;;;;;;;;;;4940060;28;21992;-59
2022/01/29 06:04:29;;;;;;;30.90;10.30;;;;;;;;;;4965008;28;20482;-59
2022/01/29 06:06:55;;;;;;;26.08;10.57;;;;;;;;;;4964596;28;20048;-59
2022/01/29 06:09:20;;;;;;;27.75;10.70;;;;;;;;;;4948741;28;20038;-59
2022/01/29 06:11:48;;;;;;;32.28;10.93;;;;;;;;;;4946274;28;20194;-60
2022/01/29 06:14:13;;;;;;;32.40;11.25;;;;;;;;;;4964768;28;20030;-59
2022/01/29 06:16:41;;;;;;;25.80;9.77;;;;;;;;;;4963975;28;20038;-59
2022/01/29 06:19:12;;;;;;;31.10;10.30;;;;;;;;;;4945714;28;20081;-59
2022/01/29 06:21:37;;;;;;;26.98;11.20;;;;;;;;;;4954910;28;20031;-60
2022/01/29 06:24:07;;;;;;;23.70;10.88;;;;;;;;;;4964482;28;20030;-60
2022/01/29 06:26:32;;;;;;;25.00;9.75;;;;;;;;;;4934770;28;20031;-59
2022/01/29 06:28:59;;;;;;;25.63;10.07;;;;;;;;;;4946283;28;20019;-60
2022/01/29 06:31:27;;;;;;;25.00;10.60;;;;;;;;;;4944354;28;20030;-60
2022/01/29 06:33:52;;;;;;;30.35;10.02;;;;;;;;;;4963706;28;20019;-59
2022/01/29 06:36:20;;;;;;;20.40;9.60;;;;;;;;;;4964344;28;20105;-60
2022/01/29 06:38:48;;;;;;;27.50;11.10;;;;;;;;;;4965221;28;20042;-60
2022/01/29 06:41:13;;;;;;;22.85;10.02;;;;;;;;;;4963382;28;20458;-59
2022/01/29 06:43:39;;;;;;;23.55;9.95;;;;;;;;;;4953033;28;20481;-60
2022/01/29 06:46:11;;;;;;;34.00;10.40;;;;;;;;;;4960875;28;20038;-59
2022/01/29 06:48:39;;;;;;;23.63;9.38;;;;;;;;;;4961530;28;20034;-58
2022/01/29 06:51:07;;;;;;;27.48;10.95;;;;;;;;;;4963534;28;20027;-59
2022/01/29 06:53:32;;;;;;;22.88;9.43;;;;;;;;;;4963453;28;20831;-60
2022/01/29 06:56:03;;;;;;;20.20;9.32;;;;;;;;;;4961090;28;20085;-59
2022/01/29 06:58:30;;;;;;;21.25;9.52;;;;;;;;;;4963026;28;20050;-60
2022/01/29 07:01:00;;;;;;;25.38;10.50;;;;;;;;;;4951713;28;20031;-61
2022/01/29 07:03:38;;;;;;;20.60;9.15;;;;;;;;;;4947727;28;20038;-59
2022/01/29 07:06:06;;;;;;;29.42;9.90;;;;;;;;;;4963499;28;20031;-58
2022/01/29 07:08:38;;;;;;;23.08;8.70;;;;;;;;;;4947346;28;20762;-60
2022/01/29 07:11:09;;;;;;;23.65;9.35;;;;;;;;;;4956737;28;20034;-60
2022/01/29 07:13:37;;;;;;;19.55;8.77;;;;;;;;;;4920034;28;20059;-59
2022/01/29 07:16:02;;;;;;;33.75;10.40;;;;;;;;;;4933442;28;20506;-59
2022/01/29 07:18:28;;;;;;;23.10;9.65;;;;;;;;;;4945225;28;20034;-60
2022/01/29 07:20:56;;;;;;;23.60;9.00;;;;;;;;;;4950925;28;20057;-60
2022/01/29 07:23:23;;;;;;;25.42;8.05;;;;;;;;;;4962631;28;20129;-60
2022/01/29 07:25:50;;;;;;;19.63;8.07;;;;;;;;;;4962873;28;21888;-59
2022/01/29 07:28:18;;;;;;;28.70;9.57;;;;;;;;;;4963137;28;20042;-59
2022/01/29 07:30:44;;;;;;;25.17;8.57;;;;;;;;;;4961879;28;20026;-58
2022/01/29 07:33:11;;;;;;;25.80;10.07;;;;;;;;;;4947055;28;20039;-58
2022/01/29 07:35:37;;;;;;;22.48;8.65;;;;;;;;;;4962667;28;20125;-59
2022/01/29 07:38:04;;;;;;;18.45;8.15;;;;;;;;;;4963295;28;20035;-59
2022/01/29 07:40:32;;;;;;;21.00;8.27;;;;;;;;;;4952834;28;20102;-59
2022/01/29 07:43:00;;;;;;;22.15;8.10;;;;;;;;;;4932184;28;20156;-60
2022/01/29 07:45:29;;;;;;;22.77;8.85;;;;;;;;;;4961055;28;21826;-61
2022/01/29 07:47:59;;;;;;;25.75;9.68;;;;;;;;;;4942937;28;20136;-59
2022/01/29 07:50:25;;;;;;;29.80;8.68;;;;;;;;;;4932299;28;20152;-59
2022/01/29 07:52:50;;;;;;;21.73;8.80;;;;;;;;;;4958270;28;20113;-60
2022/01/29 07:55:18;;;;;;;27.33;8.73;;;;;;;;;;4934865;28;20043;-60
2022/01/29 07:57:48;;;;;;;23.85;8.98;;;;;;;;;;4943422;28;20029;-59
2022/01/29 08:00:19;;;;;;;23.23;7.65;;;;;;;;;;4961318;28;20169;-59
2022/01/29 08:02:45;;;;;;;22.05;8.82;;;;;;;;;;4963718;28;20034;-59
2022/01/29 08:05:15;;;;;;;18.50;7.65;;;;;;;;;;4959716;28;20027;-59
2022/01/29 08:11:16;;;;;;;20.58;7.75;;;;;;;;;;4962179;28;20032;-59
2022/01/29 08:13:43;;;;;;;24.77;7.30;;;;;;;;;;4962028;28;20039;-60
2022/01/29 08:16:11;;;;;;;22.00;8.50;;;;;;;;;;4963130;28;20250;-60
2022/01/29 08:18:38;;;;;;;24.30;8.00;;;;;;;;;;4961274;28;20038;-61
2022/01/29 08:21:03;;;;;;;21.85;6.70;;;;;;;;;;4959579;28;20038;-59
2022/01/29 08:23:31;;;;;;;29.67;8.10;;;;;;;;;;4957641;28;20352;-60
2022/01/29 08:25:56;;;;;;;25.60;8.38;;;;;;;;;;4960822;28;20249;-60
2022/01/29 08:28:23;;;;;;;22.33;7.78;;;;;;;;;;4950208;28;20580;-59
2022/01/29 08:30:49;;;;;;;20.85;7.80;;;;;;;;;;4958183;28;20084;-59
2022/01/29 08:33:18;;;;;;;25.98;6.75;;;;;;;;;;4939760;28;20597;-59
2022/01/29 08:35:47;;;;;;;16.75;6.15;;;;;;;;;;4948400;28;20553;-59
2022/01/29 08:38:15;;;;;;;18.58;6.78;;;;;;;;;;4960363;28;20030;-59
2022/01/29 08:40:41;;;;;;;14.95;6.55;;;;;;;;;;4959359;28;20030;-59
2022/01/29 08:43:11;;;;;;;14.18;5.72;;;;;;;;;;4931292;28;20022;-60
2022/01/29 08:45:41;;;;;;;12.43;5.10;;;;;;;;;;4959562;28;20120;-60
2022/01/29 08:48:09;;;;;;;23.08;5.28;;;;;;;;;;4960849;28;20036;-60
2022/01/29 08:53:49;;;;;;;8.85;3.95;;;;;;;;;;4958021;28;20034;-59
2022/01/29 08:56:16;;;;;;;9.15;4.93;;;;;;;;;;4948623;28;20736;-59
2022/01/29 08:58:45;;;;;;;13.20;5.25;;;;;;;;;;4940750;28;20125;-58
2022/01/29 09:04:48;;;;;;;9.90;4.40;;;;;;;;;;4961216;28;20093;-58
2022/01/29 09:07:14;;;;;;;11.13;4.22;;;;;;;;;;4959893;28;20041;-59
2022/01/29 09:09:44;;;;;;;12.73;4.03;;;;;;;;;;4944204;28;20018;-58
2022/01/29 09:12:10;;;;;;;13.20;4.30;;;;;;;;;;4936386;28;20068;-58
2022/01/29 09:14:41;;;;;;;19.58;4.10;;;;;;;;;;4947669;28;20579;-59
2022/01/29 09:17:09;;;;;;;15.80;3.97;;;;;;;;;;4959672;28;20039;-58
2022/01/29 09:19:34;;;;;;;11.85;3.35;;;;;;;;;;4928039;28;20978;-59
2022/01/29 09:21:59;;;;;;;9.93;3.78;;;;;;;;;;4929930;28;20114;-60
2022/01/29 09:27:32;;;;;;;10.70;4.32;;;;;;;;;;4943208;28;20869;-59
2022/01/29 09:29:57;;;;;;;7.63;3.85;;;;;;;;;;4948872;28;20027;-59
2022/01/29 09:32:27;;;;;;;7.78;3.33;;;;;;;;;;4943313;28;20122;-59
2022/01/29 09:35:14;;;;;;;15.50;3.45;;;;;;;;;;4955137;28;20147;-61
2022/01/29 09:37:44;;;;;;;7.35;2.85;;;;;;;;;;4946396;28;20038;-60
2022/01/29 09:40:21;;;;;;;10.18;2.75;;;;;;;;;;4942295;28;20031;-60
2022/01/29 09:42:49;;;;;;;;;;;;;;;;;;4956558;28;22075;-59
2022/01/29 09:45:19;;;;;;;10.98;2.95;;;;;;;;;;4932164;28;19922;-59
2022/01/29 09:47:49;;;;;;;7.93;3.00;;;;;;;;;;4942962;28;20169;-60
2022/01/29 09:50:16;;;;;;;9.70;2.80;;;;;;;;;;4953718;28;20045;-61
2022/01/29 09:52:44;;;;;;;8.07;2.58;;;;;;;;;;4939047;28;20030;-59
2022/01/29 10:01:59;;;;;;;10.05;3.03;;;;;;;;;;4941127;28;20046;-59
2022/01/29 10:04:43;;;;;;;6.13;1.98;;;;;;;;;;4941225;28;20039;-58
2022/01/29 10:07:19;;;;;;;4.60;2.35;;;;;;;;;;4942040;28;20136;-61
2022/01/29 10:09:45;;;;;;;3.17;2.40;;;;;;;;;;4951768;28;20030;-58
2022/01/29 10:12:27;;;;;;;8.70;2.33;;;;;;;;;;4936633;28;20110;-59
2022/01/29 10:14:59;;;;;;;10.00;2.50;;;;;;;;;;4939617;28;20058;-60
2022/01/29 10:17:44;;;;;;;9.88;2.30;;;;;;;;;;4938986;28;20027;-59
2022/01/29 10:20:13;;;;;;;9.73;2.25;;;;;;;;;;4944149;28;20051;-59
2022/01/29 10:22:45;;;;;;;12.15;2.03;;;;;;;;;;4960281;28;20054;-58
2022/01/29 10:25:19;;;;;;;7.25;1.50;;;;;;;;;;4947219;28;20054;-58
2022/01/29 10:28:05;;;;;;;6.68;1.77;;;;;;;;;;4964894;28;20037;-58
2022/01/29 10:30:34;;;;;;;5.68;1.80;;;;;;;;;;4961764;28;20041;-58
2022/01/29 10:33:18;;;;;;;7.20;1.75;;;;;;;;;;4954337;28;20376;-58
2022/01/29 10:35:45;;;;;;;11.55;1.52;;;;;;;;;;4962706;28;20031;-60
2022/01/29 10:38:11;;;;;;;4.47;1.65;;;;;;;;;;4963514;28;20344;-59
2022/01/29 10:40:39;;;;;;;9.98;1.90;;;;;;;;;;4962398;28;20061;-59
2022/01/29 10:43:08;;;;;;;7.43;1.85;;;;;;;;;;4945390;28;20054;-60
2022/01/29 10:49:18;;;;;;;6.80;1.90;;;;;;;;;;4964320;28;20081;-58
2022/01/29 10:51:54;;;;;;;6.30;1.97;;;;;;;;;;4933008;28;20050;-58
2022/01/29 10:54:22;;;;;;;4.18;1.38;;;;;;;;;;4963686;28;20060;-59
2022/01/29 10:57:27;;;;;;;11.55;1.88;;;;;;;;;;4962868;28;20027;-59
2022/01/29 10:59:59;;;;;;;5.47;1.40;;;;;;;;;;4963610;28;20061;-60
2022/01/29 11:02:30;;;;;;;10.90;2.05;;;;;;;;;;4951200;28;20138;-59
2022/01/29 11:04:56;;;;;;;5.75;1.60;;;;;;;;;;4960295;28;20049;-59
2022/01/29 11:07:41;;;;;;;7.22;1.92;;;;;;;;;;4944511;28;20088;-59
2022/01/29 11:10:09;;;;;;;8.77;2.08;;;;;;;;;;4945720;28;20050;-59
2022/01/29 11:12:40;;;;;;;5.78;1.83;;;;;;;;;;4946452;28;20026;-58
2022/01/29 11:15:06;;;;;;;7.72;2.20;;;;;;;;;;4961702;28;20501;-57
2022/01/29 11:17:37;;;;;;;4.47;1.42;;;;;;;;;;4953912;28;20600;-57
2022/01/29 11:20:05;;;;;;;5.95;1.67;;;;;;;;;;4950068;28;20092;-59
2022/01/29 11:22:54;;;;;;;7.05;1.45;;;;;;;;;;4950117;28;20513;-58
2022/01/29 11:25:34;;;;;;;13.18;1.77;;;;;;;;;;4931211;28;20177;-59
2022/01/29 11:28:12;;;;;;;10.88;1.52;;;;;;;;;;4944905;28;20027;-59
2022/01/29 11:33:59;;;;;;;5.55;1.30;;;;;;;;;;4932790;28;20905;-60
2022/01/29 11:36:46;;;;;;;9.40;1.35;;;;;;;;;;4925370;28;20153;-60
2022/01/29 11:39:18;;;;;;;4.80;1.30;;;;;;;;;;4931173;28;20035;-58
2022/01/29 11:42:06;;;;;;;14.70;1.83;;;;;;;;;;4930858;28;20031;-58
2022/01/29 11:44:32;;;;;;;7.70;1.55;;;;;;;;;;4931349;28;20534;-59
2022/01/29 11:47:17;;;;;;;5.55;1.30;;;;;;;;;;4931831;28;20039;-59
2022/01/29 11:49:45;;;;;;;6.13;1.00;;;;;;;;;;4946887;28;20043;-58
2022/01/29 11:52:21;;;;;;;6.95;1.13;;;;;;;;;;4933827;28;20050;-59
2022/01/29 11:55:01;;;;;;;9.00;1.67;;;;;;;;;;4935242;28;21000;-59
2022/01/29 11:57:27;;;;;;;4.53;1.27;;;;;;;;;;4946520;28;20166;-56
2022/01/29 11:59:55;;;;;;;4.22;1.45;;;;;;;;;;4946133;28;20031;-58
2022/01/29 12:02:23;;;;;;;4.43;1.40;;;;;;;;;;4927630;28;20046;-58
2022/01/29 12:05:04;;;;;;;13.63;1.75;;;;;;;;;;4946241;28;20074;-58
2022/01/29 12:07:37;;;;;;;4.57;1.83;;;;;;;;;;4932425;28;20558;-58
2022/01/29 12:10:03;;;;;;;8.25;1.20;;;;;;;;;;4945056;28;20644;-58
2022/01/29 12:16:09;;;;;;;6.40;0.82;;;;;;;;;;4932439;28;20069;-59
2022/01/29 12:18:37;;;;;;;4.63;0.95;;;;;;;;;;4930810;28;20733;-59
2022/01/29 12:21:05;;;;;;;3.95;1.40;;;;;;;;;;4930413;28;20030;-58
2022/01/29 12:23:44;;;;;;;3.90;1.05;;;;;;;;;;4949520;28;20165;-59
2022/01/29 12:26:12;;;;;;;7.28;1.27;;;;;;;;;;4961584;28;20038;-58
2022/01/29 12:28:47;;;;;;;6.45;1.20;;;;;;;;;;4942776;28;20485;-58
2022/01/29 12:31:15;;;;;;;8.27;1.02;;;;;;;;;;4961883;28;20118;-58
2022/01/29 12:33:40;;;;;;;9.73;1.70;;;;;;;;;;4942412;28;20030;-58
2022/01/29 12:43:24;;;;;;;4.43;1.38;;;;;;;;;;4957831;28;20544;-58
2022/01/29 12:46:30;;;;;;;5.55;1.48;;;;;;;;;;4942907;28;20096;-60
2022/01/29 12:52:36;;;;;;;9.98;1.70;;;;;;;;;;4960573;28;20041;-60
2022/01/29 12:55:06;;;;;;;5.70;1.20;;;;;;;;;;4959731;28;20090;-59
2022/01/29 12:57:41;;;;;;;9.95;1.70;;;;;;;;;;4960013;28;20557;-58
2022/01/29 13:00:12;;;;;;;11.35;1.83;;;;;;;;;;4949700;28;20031;-59
2022/01/29 13:02:40;;;;;;;8.45;1.83;;;;;;;;;;4960110;28;20069;-58
2022/01/29 13:05:13;;;;;;;9.95;1.60;;;;;;;;;;4944243;28;20038;-61
2022/01/29 13:07:44;;;;;;;9.98;1.30;;;;;;;;;;4961814;28;20073;-57
2022/01/29 13:10:11;;;;;;;7.15;1.33;;;;;;;;;;4943197;28;20092;-59
2022/01/29 13:15:40;;;;;;;4.18;1.10;;;;;;;;;;4945247;28;20120;-59
2022/01/29 13:18:08;;;;;;;5.72;1.60;;;;;;;;;;4941670;28;20081;-60
2022/01/29 13:20:37;;;;;;;5.32;1.15;;;;;;;;;;4932130;28;20050;-58
2022/01/29 13:23:03;;;;;;;6.65;1.10;;;;;;;;;;4958621;28;20082;-59
2022/01/29 13:25:29;;;;;;;5.40;0.85;;;;;;;;;;4959010;28;20046;-58
2022/01/29 13:28:12;;;;;;;8.52;1.20;;;;;;;;;;4941831;28;20064;-60
2022/01/29 13:31:00;;;;;;;10.02;1.40;;;;;;;;;;4959597;28;20038;-57
2022/01/29 13:33:36;;;;;;;13.85;1.48;;;;;;;;;;4958406;28;20054;-58
2022/01/29 13:36:02;;;;;;;7.20;1.50;;;;;;;;;;4942750;28;20415;-58
2022/01/29 13:38:34;;;;;;;5.75;1.23;;;;;;;;;;4957728;28;20069;-60
2022/01/29 13:41:03;;;;;;;6.45;1.13;;;;;;;;;;4959461;28;20498;-58
2022/01/29 13:44:03;;;;;;;7.50;1.55;;;;;;;;;;4959800;28;20054;-61
2022/01/29 13:46:33;;;;;;;4.13;1.30;;;;;;;;;;4961173;28;20080;-60
2022/01/29 13:49:03;;;;;;;9.23;1.70;;;;;;;;;;4934572;28;20130;-59
2022/01/29 13:51:32;;;;;;;10.52;1.17;;;;;;;;;;4940552;28;20046;-62
2022/01/29 13:57:35;;;;;;;9.25;1.70;;;;;;;;;;4965013;28;20086;-60
2022/01/29 14:00:05;;;;;;;3.67;1.10;;;;;;;;;;4965126;28;20031;-60
2022/01/29 14:02:46;;;;;;;7.32;1.30;;;;;;;;;;4965860;28;20039;-59
2022/01/29 14:05:12;;;;;;;11.32;1.38;;;;;;;;;;4952836;28;20045;-58
2022/01/29 14:07:41;;;;;;;9.52;1.20;;;;;;;;;;4940546;28;20125;-60
2022/01/29 14:10:17;;;;;;;15.77;1.52;;;;;;;;;;4963717;28;20067;-58
2022/01/29 14:12:47;;;;;;;4.82;0.88;;;;;;;;;;4962314;28;20037;-59
2022/01/29 14:22:24;;;;;;;8.40;1.20;;;;;;;;;;4964644;28;20057;-59
2022/01/29 14:24:51;;;;;;;6.13;1.33;;;;;;;;;;4962002;28;21415;-59
2022/01/29 14:27:50;;;;;;;11.23;1.90;;;;;;;;;;4963041;28;20288;-60
2022/01/29 14:30:15;;;;;;;10.95;1.58;;;;;;;;;;4946289;28;20035;-60
2022/01/29 14:36:19;;;;;;;4.45;1.60;;;;;;;;;;4963597;28;20157;-59
2022/01/29 14:41:51;;;;;;;20.08;2.28;;;;;;;;;;4962774;28;20041;-59
2022/01/29 14:44:16;;;;;;;6.57;1.27;;;;;;;;;;4945445;28;20015;-57
2022/01/29 14:47:07;;;;;;;11.65;1.52;;;;;;;;;;4962937;28;22312;-59
2022/01/29 14:49:34;;;;;;;8.82;1.55;;;;;;;;;;4963131;28;20042;-58
2022/01/29 14:55:10;;;;;;;15.45;1.98;;;;;;;;;;4961849;28;20112;-58
2022/01/29 14:57:37;;;;;;;11.93;1.77;;;;;;;;;;4963270;28;20030;-58
2022/01/29 15:00:27;;;;;;;11.45;1.50;;;;;;;;;;4956991;28;20035;-59
2022/01/29 15:02:52;;;;;;;9.18;2.08;;;;;;;;;;4963872;28;20031;-57
2022/01/29 15:05:33;;;;;;;11.30;1.65;;;;;;;;;;4943215;28;20044;-59
2022/01/29 15:08:01;;;;;;;21.27;2.58;;;;;;;;;;4956491;28;20027;-59
2022/01/29 15:10:34;;;;;;;9.50;2.10;;;;;;;;;;4951211;28;20474;-58
2022/01/29 15:13:02;;;;;;;13.18;2.08;;;;;;;;;;4951563;28;20657;-59
2022/01/29 15:15:28;;;;;;;12.05;1.63;;;;;;;;;;4960682;28;20038;-58
2022/01/29 15:18:30;;;;;;;11.27;1.83;;;;;;;;;;4961465;28;20179;-60
2022/01/29 15:20:58;;;;;;;17.05;1.92;;;;;;;;;;4948980;28;20034;-58
2022/01/29 15:23:26;;;;;;;14.23;2.13;;;;;;;;;;4941738;28;20041;-59
2022/01/29 15:25:57;;;;;;;21.80;2.45;;;;;;;;;;4961932;28;20035;-58
2022/01/29 15:28:25;;;;;;;15.55;2.88;;;;;;;;;;4946379;28;21870;-59
2022/01/29 15:30:54;;;;;;;17.98;2.42;;;;;;;;;;4961806;28;20121;-59
2022/01/29 15:33:21;;;;;;;18.77;2.10;;;;;;;;;;4961801;28;20044;-58
2022/01/29 15:35:47;;;;;;;17.90;2.47;;;;;;;;;;4942087;28;20030;-58
2022/01/29 15:38:16;;;;;;;21.98;3.35;;;;;;;;;;4950390;28;20046;-58
2022/01/29 15:40:46;;;;;;;17.38;3.10;;;;;;;;;;4961245;28;20034;-57
2022/01/29 15:43:13;;;;;;;13.38;2.38;;;;;;;;;;4948817;28;21734;-59
2022/01/29 15:45:41;;;;;;;21.85;3.58;;;;;;;;;;4944554;28;20027;-58
2022/01/29 15:48:37;;;;;;;26.20;3.08;;;;;;;;;;4962719;28;20793;-59
2022/01/29 15:51:06;;;;;;;21.38;3.20;;;;;;;;;;4945809;28;20739;-57
2022/01/29 16:00:22;;;;;;;16.48;3.60;;;;;;;;;;4960132;28;20034;-57
2022/01/29 16:02:50;;;;;;;21.60;3.88;;;;;;;;;;4960011;28;20035;-60
2022/01/29 16:05:18;;;;;;;17.88;2.72;;;;;;;;;;4958275;28;20042;-59
2022/01/29 16:07:51;;;;;;;25.50;4.03;;;;;;;;;;4957080;28;20433;-59